createdAt,value
2019-02-12T00:00:45.865Z,97602.54
2019-02-12T00:03:12.472Z,97589.76
2019-02-12T00:05:39.317Z,97610.06
2019-02-12T00:10:39.045Z,97614.89
2019-02-12T00:13:05.740Z,97630.69
2019-02-12T00:15:32.736Z,97618.97
2019-02-12T00:17:59.730Z,97624.86
2019-02-12T00:20:26.416Z,97615.95
2019-02-12T00:22:53.014Z,97626.98
2019-02-12T00:25:19.949Z,97632.42
2019-02-12T00:27:46.740Z,97628.02
2019-02-12T00:30:13.817Z,97635.78
2019-02-12T00:32:41.470Z,97641.09
2019-02-12T00:35:09.165Z,97636.03
2019-02-12T00:37:38.267Z,97640.83
2019-02-12T00:40:05.231Z,97640.15
2019-02-12T00:42:32.957Z,97636.22
2019-02-12T00:45:00.210Z,97642.42
2019-02-12T00:47:28.176Z,97637.87
2019-02-12T00:49:55.161Z,97638.07
2019-02-12T00:52:23.009Z,97644.36
2019-02-12T00:54:49.649Z,97654.70
2019-02-12T00:57:16.698Z,97647.19
2019-02-12T00:59:43.327Z,97667.33
2019-02-12T01:02:11.201Z,97661.75
2019-02-12T01:04:38.800Z,97664.19
2019-02-12T01:07:08.046Z,97663.19
2019-02-12T01:09:34.956Z,97652.42
2019-02-12T01:12:02.557Z,97655.70
2019-02-12T01:14:29.587Z,97666.14
2019-02-12T01:16:56.675Z,97653.70
2019-02-12T01:19:24.601Z,97658.09
2019-02-12T01:21:51.325Z,97656.58
2019-02-12T01:24:17.966Z,97642.69
2019-02-12T01:26:44.684Z,97646.37
2019-02-12T01:29:12.888Z,97648.98
2019-02-12T01:31:40.576Z,97642.73
2019-02-12T01:34:08.259Z,97646.63
2019-02-12T01:36:37.343Z,97629.45
2019-02-12T01:39:08.113Z,97631.85
2019-02-12T01:41:34.697Z,97634.17
2019-02-12T01:44:01.324Z,97638.27
2019-02-12T01:46:28.270Z,97642.88
2019-02-12T01:48:55.020Z,97647.46
2019-02-12T01:51:22.265Z,97650.74
2019-02-12T01:53:50.177Z,97655.17
2019-02-12T01:56:16.783Z,97663.17
2019-02-12T01:58:44.011Z,97646.66
2019-02-12T02:01:10.892Z,97645.81
2019-02-12T02:03:38.716Z,97662.88
2019-02-12T02:06:05.359Z,97669.13
2019-02-12T02:08:32.257Z,97656.67
2019-02-12T02:10:59.985Z,97688.92
2019-02-12T02:13:26.906Z,97686.84
2019-02-12T02:15:53.620Z,97700.12
2019-02-12T02:18:21.243Z,97682.33
2019-02-12T02:20:48.028Z,97688.54
2019-02-12T02:23:16.591Z,97691.67
2019-02-12T02:25:43.208Z,97692.17
2019-02-12T02:28:10.258Z,97691.97
2019-02-12T02:30:36.945Z,97692.91
2019-02-12T02:33:04.539Z,97695.58
2019-02-12T02:35:32.467Z,97692.17
2019-02-12T02:38:00.126Z,97685.88
2019-02-12T02:40:27.913Z,97696.45
2019-02-12T02:42:54.783Z,97689.48
2019-02-12T02:45:22.460Z,97697.18
2019-02-12T02:47:49.867Z,97704.53
2019-02-12T02:50:17.773Z,97699.30
2019-02-12T02:52:48.943Z,97705.52
2019-02-12T02:55:15.922Z,97702.78
2019-02-12T02:57:43.331Z,97708.00
2019-02-12T03:00:09.990Z,97715.30
2019-02-12T03:02:36.671Z,97714.76
2019-02-12T03:05:03.570Z,97725.93
2019-02-12T03:07:32.252Z,97725.17
2019-02-12T03:10:00.028Z,97730.48
2019-02-12T03:12:26.992Z,97744.30
2019-02-12T03:14:54.529Z,97751.02
2019-02-12T03:17:21.856Z,97742.94
2019-02-12T03:19:49.695Z,97754.94
2019-02-12T03:22:17.114Z,97745.09
2019-02-12T03:24:45.304Z,97744.52
2019-02-12T03:27:12.590Z,97760.61
2019-02-12T03:29:39.767Z,97755.94
2019-02-12T03:32:06.780Z,97756.40
2019-02-12T03:34:33.826Z,97769.66
2019-02-12T03:37:02.379Z,97760.18
2019-02-12T03:39:29.263Z,97758.09
2019-02-12T03:41:56.943Z,97766.79
2019-02-12T03:44:23.959Z,97765.80
2019-02-12T03:46:52.843Z,97768.31
2019-02-12T03:49:19.846Z,97766.51
2019-02-12T03:51:47.562Z,97795.89
2019-02-12T03:54:16.894Z,97749.75
2019-02-12T03:56:44.512Z,97776.37
2019-02-12T03:59:12.189Z,97784.55
2019-02-12T04:01:40.043Z,97773.73
2019-02-12T04:04:07.103Z,97763.14
2019-02-12T04:06:34.021Z,97758.48
2019-02-12T04:09:00.887Z,97769.63
2019-02-12T04:11:28.201Z,97760.33
2019-02-12T04:13:55.480Z,97751.99
2019-02-12T04:16:22.989Z,97761.05
2019-02-12T04:18:50.677Z,97766.16
2019-02-12T04:21:18.149Z,97776.40
2019-02-12T04:23:47.244Z,97771.21
2019-02-12T04:26:16.490Z,97764.50
2019-02-12T04:28:43.427Z,97779.70
2019-02-12T04:31:10.046Z,97764.50
2019-02-12T04:33:36.697Z,97782.60
2019-02-12T04:36:03.304Z,97758.31
2019-02-12T04:38:30.161Z,97785.34
2019-02-12T04:40:56.785Z,97752.20
2019-02-12T04:43:23.667Z,97773.13
2019-02-12T04:45:51.255Z,97766.20
2019-02-12T04:48:20.294Z,97770.03
2019-02-12T04:50:49.549Z,97779.15
2019-02-12T04:53:16.768Z,97773.19
2019-02-12T04:55:45.065Z,97789.63
2019-02-12T04:58:13.948Z,97786.93
2019-02-12T05:00:41.310Z,97799.52
2019-02-12T05:03:09.184Z,97805.35
2019-02-12T05:05:38.065Z,97804.39
2019-02-12T05:08:05.858Z,97798.14
2019-02-12T05:10:33.027Z,97825.78
2019-02-12T05:12:59.916Z,97808.27
2019-02-12T05:15:26.711Z,97821.55
2019-02-12T05:17:53.566Z,97818.38
2019-02-12T05:20:21.004Z,97829.88
2019-02-12T05:22:47.754Z,97819.57
2019-02-12T05:25:14.407Z,97820.50
2019-02-12T05:27:43.318Z,97813.23
2019-02-12T05:30:11.174Z,97823.20
2019-02-12T05:32:40.205Z,97824.91
2019-02-12T05:35:11.534Z,97817.47
2019-02-12T05:37:40.219Z,97822.09
2019-02-12T05:40:07.636Z,97822.28
2019-02-12T05:42:36.617Z,97830.25
2019-02-12T05:45:03.418Z,97831.64
2019-02-12T05:47:30.519Z,97835.82
2019-02-12T05:49:59.548Z,97832.74
2019-02-12T05:52:26.409Z,97825.30
2019-02-12T05:54:53.769Z,97846.34
2019-02-12T05:57:31.947Z,97831.33
2019-02-12T05:59:59.681Z,97830.38
2019-02-12T06:02:27.736Z,97831.39
2019-02-12T06:04:56.436Z,97846.51
2019-02-12T06:07:26.101Z,97862.39
2019-02-12T06:09:54.705Z,97861.51
2019-02-12T06:12:25.720Z,97866.81
2019-02-12T06:14:56.412Z,97865.83
2019-02-12T06:17:23.125Z,97886.75
2019-02-12T06:19:50.705Z,97889.05
2019-02-12T06:22:20.011Z,97891.48
2019-02-12T06:24:48.440Z,97908.42
2019-02-12T06:27:17.082Z,97910.60
2019-02-12T06:29:47.703Z,97912.72
2019-02-12T06:32:14.413Z,97911.53
2019-02-12T06:34:43.657Z,97913.41
2019-02-12T06:37:11.662Z,97916.38
2019-02-12T06:39:40.286Z,97912.52
2019-02-12T06:42:08.923Z,97901.27
2019-02-12T06:44:36.077Z,97898.41
2019-02-12T06:47:02.991Z,97886.83
2019-02-12T06:49:30.217Z,97907.16
2019-02-12T06:51:57.072Z,97904.50
2019-02-12T06:54:24.311Z,97899.31
2019-02-12T06:56:51.218Z,97900.75
2019-02-12T06:59:18.621Z,97888.55
2019-02-12T07:01:45.487Z,97896.38
2019-02-12T07:04:12.390Z,97883.36
2019-02-12T07:06:39.362Z,97901.06
2019-02-12T07:09:06.429Z,97903.58
2019-02-12T07:11:33.417Z,97898.53
2019-02-12T07:14:00.231Z,97894.95
2019-02-12T07:16:27.031Z,97897.17
2019-02-12T07:18:54.568Z,97898.07
2019-02-12T07:21:21.635Z,97906.87
2019-02-12T07:23:49.265Z,97912.16
2019-02-12T07:26:16.021Z,97904.89
2019-02-12T07:28:43.268Z,97915.72
2019-02-12T07:31:17.657Z,97903.17
2019-02-12T07:33:44.793Z,97921.14
2019-02-12T07:36:11.928Z,97920.83
2019-02-12T07:38:38.876Z,97917.67
2019-02-12T07:41:05.924Z,97926.27
2019-02-12T07:43:33.291Z,97929.70
2019-02-12T07:46:00.176Z,97930.91
2019-02-12T07:48:26.967Z,97945.48
2019-02-12T07:50:54.079Z,97944.98
2019-02-12T07:53:30.840Z,97939.84
2019-02-12T07:55:51.518Z,97941.22
2019-02-12T07:58:19.493Z,97927.19
2019-02-12T08:00:47.431Z,97928.72
2019-02-12T08:03:14.277Z,97934.50
2019-02-12T08:05:41.114Z,97917.31
2019-02-12T08:08:07.768Z,97953.53
2019-02-12T08:10:34.372Z,97958.13
2019-02-12T08:13:01.595Z,97966.80
2019-02-12T08:15:28.523Z,97968.61
2019-02-12T08:17:55.329Z,97946.16
2019-02-12T08:20:22.274Z,97948.77
2019-02-12T08:22:49.668Z,97949.09
2019-02-12T08:25:16.424Z,97953.19
2019-02-12T08:27:43.296Z,97960.75
2019-02-12T08:30:09.983Z,97958.13
2019-02-12T08:32:36.725Z,97959.75
2019-02-12T08:35:03.662Z,97982.69
2019-02-12T08:37:31.985Z,97968.19
2019-02-12T08:39:59.089Z,97967.16
2019-02-12T08:42:25.824Z,97956.87
2019-02-12T08:44:52.947Z,97969.30
2019-02-12T08:47:20.140Z,97971.52
2019-02-12T08:49:46.733Z,97964.28
2019-02-12T08:52:13.474Z,97969.53
2019-02-12T08:54:40.182Z,97958.88
2019-02-12T08:57:06.817Z,97964.31
2019-02-12T08:59:33.599Z,97974.27
2019-02-12T09:02:00.270Z,97963.66
2019-02-12T09:04:26.992Z,97954.31
2019-02-12T09:06:54.222Z,97963.08
2019-02-12T09:09:20.979Z,97956.48
2019-02-12T09:11:47.555Z,97953.80
2019-02-12T09:14:14.269Z,97962.28
2019-02-12T09:16:41.001Z,97962.86
2019-02-12T09:19:07.592Z,97968.06
2019-02-12T09:21:34.184Z,97971.60
2019-02-12T09:24:03.286Z,97963.68
2019-02-12T09:26:29.519Z,97978.33
2019-02-12T09:28:56.374Z,97963.47
2019-02-12T09:31:23.258Z,97978.45
2019-02-12T09:33:50.586Z,97975.26
2019-02-12T09:36:17.546Z,97981.44
2019-02-12T09:38:44.457Z,97983.11
2019-02-12T09:41:11.347Z,97992.81
2019-02-12T09:43:38.002Z,97992.38
2019-02-12T09:46:04.948Z,98003.66
2019-02-12T09:48:31.576Z,98001.98
2019-02-12T09:50:59.101Z,98009.02
2019-02-12T09:53:25.756Z,98013.72
2019-02-12T09:55:52.839Z,98025.26
2019-02-12T09:58:20.970Z,98017.20
2019-02-12T10:00:47.664Z,98040.29
2019-02-12T10:03:14.264Z,98055.14
2019-02-12T10:05:40.919Z,98051.30
2019-02-12T10:08:07.889Z,98064.84
2019-02-12T10:10:34.769Z,98071.12
2019-02-12T10:13:01.423Z,98075.22
2019-02-12T10:15:28.340Z,98069.03
2019-02-12T10:17:55.074Z,98069.67
2019-02-12T10:20:21.991Z,98069.53
2019-02-12T10:22:48.889Z,98065.23
2019-02-12T10:25:15.506Z,98064.27
2019-02-12T10:27:42.160Z,98065.02
2019-02-12T10:30:08.944Z,98059.23
2019-02-12T10:32:35.634Z,98060.13
2019-02-12T10:35:03.104Z,98062.34
2019-02-12T10:37:30.043Z,98062.14
2019-02-12T10:39:57.236Z,98070.94
2019-02-12T10:44:56.194Z,98081.94
2019-02-12T10:47:23.413Z,98081.63
2019-02-12T10:49:51.665Z,98076.12
2019-02-12T10:52:18.432Z,98078.71
2019-02-12T10:54:45.134Z,98077.28
2019-02-12T10:57:11.757Z,98082.09
2019-02-12T10:59:38.784Z,98088.34
2019-02-12T11:02:05.456Z,98088.00
2019-02-12T11:04:32.327Z,98095.55
2019-02-12T11:06:59.032Z,98100.53
2019-02-12T11:09:25.719Z,98112.92
2019-02-12T11:11:52.749Z,98115.59
2019-02-12T11:14:19.599Z,98107.50
2019-02-12T11:16:46.509Z,98120.40
2019-02-12T11:19:13.426Z,98112.26
2019-02-12T11:21:40.372Z,98111.06
2019-02-12T11:24:06.992Z,98123.76
2019-02-12T11:26:33.967Z,98124.31
2019-02-12T11:29:00.703Z,98120.84
2019-02-12T11:31:28.215Z,98147.63
2019-02-12T11:33:54.942Z,98145.52
2019-02-12T11:36:22.525Z,98166.70
2019-02-12T11:38:49.109Z,98175.74
2019-02-12T11:41:15.887Z,98163.07
2019-02-12T11:43:42.603Z,98172.89
2019-02-12T11:46:09.631Z,98183.58
2019-02-12T11:48:36.293Z,98178.23
2019-02-12T11:51:03.065Z,98155.58
2019-02-12T11:53:30.278Z,98172.52
2019-02-12T11:55:57.163Z,98163.23
2019-02-12T11:58:24.781Z,98168.84
2019-02-12T12:00:52.542Z,98171.31
2019-02-12T12:03:19.212Z,98176.56
2019-02-12T12:05:45.831Z,98166.53
2019-02-12T12:08:12.444Z,98173.92
2019-02-12T12:10:39.429Z,98167.20
2019-02-12T12:13:06.662Z,98177.33
2019-02-12T12:15:33.493Z,98165.22
2019-02-12T12:18:00.701Z,98187.02
2019-02-12T12:23:06.531Z,98205.45
2019-02-12T12:25:33.224Z,98204.97
2019-02-12T12:28:00.244Z,98204.66
2019-02-12T12:30:27.083Z,98181.13
2019-02-12T12:32:53.813Z,98208.66
2019-02-12T12:35:20.723Z,98212.48
2019-02-12T12:37:47.401Z,98211.53
2019-02-12T12:40:14.186Z,98202.99
2019-02-12T12:42:44.615Z,98212.70
2019-02-12T12:45:11.270Z,98238.63
2019-02-12T12:47:38.178Z,98215.64
2019-02-12T12:50:05.327Z,98231.07
2019-02-12T12:52:34.009Z,98212.92
2019-02-12T12:55:00.338Z,98221.19
2019-02-12T12:57:30.238Z,98213.09
2019-02-12T12:59:59.258Z,98220.05
2019-02-12T13:02:26.118Z,98217.72
2019-02-12T13:04:53.524Z,98198.70
2019-02-12T13:07:20.136Z,98222.30
2019-02-12T13:09:46.999Z,98213.25
2019-02-12T13:12:13.681Z,98227.88
2019-02-12T13:14:40.581Z,98220.10
2019-02-12T13:17:07.627Z,98212.39
2019-02-12T13:19:34.521Z,98221.77
2019-02-12T13:22:01.449Z,98233.23
2019-02-12T13:24:28.124Z,98228.52
2019-02-12T13:26:54.784Z,98230.55
2019-02-12T13:29:21.565Z,98227.82
2019-02-12T13:31:50.758Z,98244.73
2019-02-12T13:34:18.911Z,98249.66
2019-02-12T13:36:45.998Z,98240.95
2019-02-12T13:39:13.205Z,98249.82
2019-02-12T13:41:39.900Z,98252.30
2019-02-12T13:44:06.601Z,98258.45
2019-02-12T13:46:36.320Z,98252.80
2019-02-12T13:49:05.407Z,98265.78
2019-02-12T13:51:35.136Z,98275.83
2019-02-12T13:54:04.851Z,98270.87
2019-02-12T13:56:31.831Z,98277.25
2019-02-12T13:59:00.236Z,98263.66
2019-02-12T14:01:27.069Z,98264.14
2019-02-12T14:03:54.273Z,98259.36
2019-02-12T14:06:20.984Z,98262.30
2019-02-12T14:08:47.912Z,98270.37
2019-02-12T14:11:14.587Z,98270.05
2019-02-12T14:13:41.185Z,98278.11
2019-02-12T14:16:10.101Z,98263.66
2019-02-12T14:18:36.843Z,98259.38
2019-02-12T14:21:05.728Z,98277.30
2019-02-12T14:23:32.313Z,98278.77
2019-02-12T14:25:59.945Z,98276.45
2019-02-12T14:28:29.586Z,98288.30
2019-02-12T14:31:02.439Z,98282.22
2019-02-12T14:33:29.542Z,98306.87
2019-02-12T14:35:59.709Z,98306.56
2019-02-12T14:38:26.450Z,98296.19
2019-02-12T14:40:56.492Z,98298.50
2019-02-12T14:43:25.262Z,98298.66
2019-02-12T14:45:52.057Z,98295.23
2019-02-12T14:48:21.787Z,98306.05
2019-02-12T14:50:48.735Z,98300.69
2019-02-12T14:53:15.566Z,98305.44
2019-02-12T14:55:47.683Z,98307.63
2019-02-12T14:58:14.592Z,98324.87
2019-02-12T15:00:42.240Z,98325.79
2019-02-12T15:03:09.044Z,98323.73
2019-02-12T15:05:36.101Z,98333.94
2019-02-12T15:08:03.092Z,98341.95
2019-02-12T15:10:29.809Z,98322.23
2019-02-12T15:12:56.560Z,98348.20
2019-02-12T15:15:24.570Z,98339.91
2019-02-12T15:17:51.158Z,98342.55
2019-02-12T15:20:18.059Z,98347.31
2019-02-12T15:22:45.064Z,98344.40
2019-02-12T15:25:12.048Z,98351.98
2019-02-12T15:27:39.316Z,98347.64
2019-02-12T15:30:06.117Z,98337.15
2019-02-12T15:32:32.765Z,98328.14
2019-02-12T15:34:59.376Z,98336.80
2019-02-12T15:37:26.244Z,98343.58
2019-02-12T15:39:53.165Z,98347.69
2019-02-12T15:42:23.435Z,98350.02
2019-02-12T15:44:52.077Z,98338.34
2019-02-12T15:47:21.635Z,98354.24
2019-02-12T15:49:48.487Z,98356.65
2019-02-12T15:52:15.670Z,98352.97
2019-02-12T15:54:45.922Z,98353.15
2019-02-12T15:57:12.621Z,98353.02
2019-02-12T15:59:42.968Z,98345.88
2019-02-12T16:02:11.563Z,98352.50
2019-02-12T16:04:40.804Z,98368.06
2019-02-12T16:07:10.444Z,98364.83
2019-02-12T16:09:41.658Z,98366.69
2019-02-12T16:12:08.117Z,98370.95
2019-02-12T16:14:36.136Z,98366.12
2019-02-12T16:17:05.145Z,98384.02
2019-02-12T16:19:33.325Z,98370.25
2019-02-12T16:22:06.961Z,98393.55
2019-02-12T16:24:35.651Z,98397.41
2019-02-12T16:27:03.480Z,98381.40
2019-02-12T16:29:31.159Z,98389.80
2019-02-12T16:32:00.525Z,98398.88
2019-02-12T16:34:29.743Z,98411.90
2019-02-12T16:37:00.838Z,98385.02
2019-02-12T16:39:29.059Z,98413.51
2019-02-12T16:41:56.689Z,98397.28
2019-02-12T16:44:25.872Z,98421.41
2019-02-12T16:46:53.075Z,98442.80
2019-02-12T16:49:19.728Z,98424.66
2019-02-12T16:51:47.822Z,98431.23
2019-02-12T16:54:14.919Z,98440.48
2019-02-12T16:56:45.121Z,98439.64
2019-02-12T16:59:12.236Z,98455.84
2019-02-12T17:01:39.306Z,98478.11
2019-02-12T17:04:06.289Z,98485.38
2019-02-12T17:06:34.536Z,98475.96
2019-02-12T17:09:01.182Z,98477.96
2019-02-12T17:11:27.831Z,98478.32
2019-02-12T17:13:54.455Z,98490.88
2019-02-12T17:16:21.380Z,98481.38
2019-02-12T17:18:47.953Z,98503.56
2019-02-12T17:21:14.634Z,98484.43
2019-02-12T17:23:41.547Z,98508.31
2019-02-12T17:26:16.106Z,98487.06
2019-02-12T17:28:36.757Z,98526.02
2019-02-12T17:31:04.924Z,98527.27
2019-02-12T17:33:31.654Z,98535.53
2019-02-12T17:35:58.614Z,98541.61
2019-02-12T17:38:25.268Z,98531.73
2019-02-12T17:40:51.952Z,98532.39
2019-02-12T17:43:18.725Z,98548.66
2019-02-12T17:45:45.489Z,98543.09
2019-02-12T17:48:12.115Z,98547.64
2019-02-12T17:50:39.125Z,98560.25
2019-02-12T17:53:05.952Z,98559.07
2019-02-12T17:55:32.928Z,98566.73
2019-02-12T17:57:59.576Z,98576.13
2019-02-12T18:00:26.166Z,98587.06
2019-02-12T18:02:53.372Z,98569.66
2019-02-12T18:05:20.075Z,98559.80
2019-02-12T18:07:46.734Z,98576.20
2019-02-12T18:10:13.428Z,98568.34
2019-02-12T18:12:40.271Z,98585.52
2019-02-12T18:15:07.495Z,98577.83
2019-02-12T18:17:35.821Z,98585.67
2019-02-12T18:20:03.617Z,98584.11
2019-02-12T18:22:30.514Z,98596.81
2019-02-12T18:24:57.396Z,98587.88
2019-02-12T18:27:24.019Z,98595.98
2019-02-12T18:29:50.655Z,98608.23
2019-02-12T18:32:17.452Z,98611.21
2019-02-12T18:34:44.051Z,98611.77
2019-02-12T18:37:10.680Z,98623.88
2019-02-12T18:39:37.906Z,98624.88
2019-02-12T18:42:05.845Z,98626.11
2019-02-12T18:44:32.695Z,98626.78
2019-02-12T18:47:00.608Z,98635.63
2019-02-12T18:49:30.669Z,98644.71
2019-02-12T18:52:01.356Z,98628.56
2019-02-12T18:54:31.019Z,98639.67
2019-02-12T18:57:02.026Z,98623.36
2019-02-12T19:00:04.248Z,98633.69
2019-02-12T19:02:10.636Z,98629.40
2019-02-12T19:04:41.539Z,98651.50
2019-02-12T19:07:11.202Z,98638.84
2019-02-12T19:09:40.905Z,98639.00
2019-02-12T19:12:08.589Z,98648.63
2019-02-12T19:14:38.803Z,98645.47
2019-02-12T19:17:11.379Z,98652.69
2019-02-12T19:19:39.206Z,98653.27
2019-02-12T19:22:07.731Z,98655.33
2019-02-12T19:24:36.807Z,98661.47
2019-02-12T19:27:03.641Z,98660.97
2019-02-12T19:29:40.694Z,98656.84
2019-02-12T19:34:58.698Z,98664.80
2019-02-12T19:37:26.677Z,98669.33
2019-02-12T19:39:58.638Z,98663.97
2019-02-12T19:42:25.302Z,98664.29
2019-02-12T19:44:52.016Z,98677.67
2019-02-12T19:47:18.932Z,98678.58
2019-02-12T19:49:46.152Z,98688.11
2019-02-12T19:52:12.768Z,98683.73
2019-02-12T19:54:39.770Z,98689.67
2019-02-12T19:57:07.114Z,98686.36
2019-02-12T19:59:33.791Z,98686.92
2019-02-12T20:02:00.477Z,98687.43
2019-02-12T20:04:27.126Z,98693.34
2019-02-12T20:06:55.847Z,98702.16
2019-02-12T20:09:22.687Z,98706.22
2019-02-12T20:11:51.370Z,98702.98
2019-02-12T20:14:18.207Z,98702.17
2019-02-12T20:16:45.084Z,98705.21
2019-02-12T20:19:12.044Z,98706.27
2019-02-12T20:21:38.768Z,98708.78
2019-02-12T20:24:07.439Z,98723.05
2019-02-12T20:26:34.279Z,98718.78
2019-02-12T20:29:01.137Z,98729.81
2019-02-12T20:31:27.809Z,98730.70
2019-02-12T20:33:57.164Z,98740.38
2019-02-12T20:36:22.821Z,98744.37
2019-02-12T20:38:49.534Z,98736.70
2019-02-12T20:41:16.428Z,98746.38
2019-02-12T20:43:43.315Z,98749.41
2019-02-12T20:46:09.965Z,98748.64
2019-02-12T20:48:37.819Z,98760.78
2019-02-12T20:51:04.539Z,98751.32
2019-02-12T20:53:31.144Z,98747.24
2019-02-12T20:55:57.892Z,98748.91
2019-02-12T20:58:25.039Z,98750.98
2019-02-12T21:00:52.150Z,98756.13
2019-02-12T21:03:18.986Z,98751.28
2019-02-12T21:05:46.205Z,98748.64
2019-02-12T21:08:13.134Z,98764.97
2019-02-12T21:10:43.626Z,98770.14
2019-02-12T21:13:10.706Z,98768.06
2019-02-12T21:15:37.411Z,98771.11
2019-02-12T21:18:04.476Z,98775.23
2019-02-12T21:20:31.360Z,98772.77
2019-02-12T21:22:58.285Z,98779.97
2019-02-12T21:25:25.249Z,98781.01
2019-02-12T21:27:52.327Z,98777.29
2019-02-12T21:30:19.404Z,98775.05
2019-02-12T21:32:46.375Z,98787.17
2019-02-12T21:35:13.395Z,98787.43
2019-02-12T21:37:40.087Z,98782.90
2019-02-12T21:40:06.763Z,98795.25
2019-02-12T21:42:33.735Z,98793.77
2019-02-12T21:45:00.618Z,98794.63
2019-02-12T21:47:27.315Z,98790.03
2019-02-12T21:49:54.358Z,98793.85
2019-02-12T21:52:22.900Z,98789.06
2019-02-12T21:54:49.589Z,98794.11
2019-02-12T21:57:16.363Z,98799.63
2019-02-12T21:59:43.192Z,98794.89
2019-02-12T22:02:09.772Z,98805.98
2019-02-12T22:04:36.409Z,98809.55
2019-02-12T22:07:03.164Z,98803.41
2019-02-12T22:09:30.541Z,98807.42
2019-02-12T22:11:57.396Z,98803.01
2019-02-12T22:14:29.768Z,98812.31
2019-02-12T22:16:56.466Z,98806.58
2019-02-12T22:19:23.088Z,98812.31
2019-02-12T22:21:49.685Z,98816.34
2019-02-12T22:24:16.592Z,98819.66
2019-02-12T22:26:43.251Z,98827.53
2019-02-12T22:29:09.862Z,98829.88
2019-02-12T22:31:36.742Z,98824.20
2019-02-12T22:34:03.328Z,98829.48
2019-02-12T22:36:29.972Z,98831.73
2019-02-12T22:38:56.860Z,98836.81
2019-02-12T22:41:23.497Z,98840.84
2019-02-12T22:43:50.110Z,98844.14
2019-02-12T22:46:17.049Z,98851.61
2019-02-12T22:48:43.923Z,98862.55
2019-02-12T22:51:10.497Z,98863.63
2019-02-12T22:53:37.169Z,98862.59
2019-02-12T22:56:03.739Z,98862.77
2019-02-12T22:58:30.322Z,98858.91
2019-02-12T23:00:57.274Z,98864.56
2019-02-12T23:03:23.918Z,98871.83
2019-02-12T23:05:50.667Z,98872.77
2019-02-12T23:08:17.328Z,98875.59
2019-02-12T23:10:43.909Z,98881.28
2019-02-12T23:13:10.511Z,98879.77
2019-02-12T23:15:37.488Z,98883.16
2019-02-12T23:18:04.398Z,98878.98
2019-02-12T23:20:30.980Z,98887.47
2019-02-12T23:22:57.622Z,98890.30
2019-02-12T23:25:24.596Z,98894.41
2019-02-12T23:27:57.174Z,98891.28
2019-02-12T23:30:20.045Z,98894.94
2019-02-12T23:32:47.037Z,98898.78
2019-02-12T23:35:13.750Z,98899.44
2019-02-12T23:37:40.618Z,98893.97
2019-02-12T23:40:07.248Z,98890.27
2019-02-12T23:42:33.860Z,98902.94
2019-02-12T23:45:00.502Z,98898.97
2019-02-12T23:47:27.628Z,98898.63
2019-02-12T23:49:54.546Z,98894.42
2019-02-12T23:52:21.187Z,98903.22
2019-02-12T23:54:47.982Z,98903.78
2019-02-12T23:57:14.612Z,98903.82
2019-02-12T23:59:41.310Z,98914.25
